sensor_id;sensor_type;location;lat;lon;timestamp;temperature;humidity
4934;DHT22;2482;49.154;8.254;2023-07-31T00:00:21;18.00;99.90
4934;DHT22;2482;49.154;8.254;2023-07-31T00:02:48;18.00;99.90
4934;DHT22;2482;49.154;8.254;2023-07-31T00:05:15;18.00;99.90
4934;DHT22;2482;49.154;8.254;2023-07-31T00:07:42;17.90;99.90
4934;DHT22;2482;49.154;8.254;2023-07-31T00:10:09;18.10;99.90
4934;DHT22;2482;49.154;8.254;2023-07-31T00:12:43;18.10;99.90
4934;DHT22;2482;49.154;8.254;2023-07-31T00:15:12;18.00;99.90
4934;DHT22;2482;49.154;8.254;2023-07-31T00:17:40;18.00;99.90
4934;DHT22;2482;49.154;8.254;2023-07-31T00:20:07;17.90;99.90
4934;DHT22;2482;49.154;8.254;2023-07-31T00:22:36;17.90;99.90
4934;DHT22;2482;49.154;8.254;2023-07-31T00:25:03;17.90;99.90
4934;DHT22;2482;49.154;8.254;2023-07-31T00:27:35;17.80;99.90
4934;DHT22;2482;49.154;8.254;2023-07-31T00:30:02;17.80;99.90
4934;DHT22;2482;49.154;8.254;2023-07-31T00:32:29;17.70;99.90
4934;DHT22;2482;49.154;8.254;2023-07-31T00:34:56;17.70;99.90
4934;DHT22;2482;49.154;8.254;2023-07-31T00:37:23;17.70;99.90
4934;DHT22;2482;49.154;8.254;2023-07-31T00:39:50;17.60;99.90
4934;DHT22;2482;49.154;8.254;2023-07-31T00:42:17;17.60;99.90
4934;DHT22;2482;49.154;8.254;2023-07-31T00:44:45;17.60;99.90
4934;DHT22;2482;49.154;8.254;2023-07-31T00:47:12;17.60;99.90
4934;DHT22;2482;49.154;8.254;2023-07-31T00:49:39;17.60;99.90
4934;DHT22;2482;49.154;8.254;2023-07-31T00:52:07;17.60;99.90
4934;DHT22;2482;49.154;8.254;2023-07-31T00:54:35;17.60;99.90
4934;DHT22;2482;49.154;8.254;2023-07-31T00:57:02;17.60;99.90
4934;DHT22;2482;49.154;8.254;2023-07-31T00:59:29;17.60;99.90
4934;DHT22;2482;49.154;8.254;2023-07-31T01:01:56;17.60;99.90
4934;DHT22;2482;49.154;8.254;2023-07-31T01:04:24;17.70;99.90
4934;DHT22;2482;49.154;8.254;2023-07-31T01:12:15;17.80;99.90
4934;DHT22;2482;49.154;8.254;2023-07-31T01:15:09;17.60;99.90
4934;DHT22;2482;49.154;8.254;2023-07-31T01:17:44;17.60;99.90
4934;DHT22;2482;49.154;8.254;2023-07-31T01:20:21;17.50;99.90
4934;DHT22;2482;49.154;8.254;2023-07-31T01:31:25;17.60;99.90
4934;DHT22;2482;49.154;8.254;2023-07-31T01:33:57;17.60;99.90
4934;DHT22;2482;49.154;8.254;2023-07-31T01:36:28;17.50;99.90
4934;DHT22;2482;49.154;8.254;2023-07-31T01:39:00;17.50;99.90
4934;DHT22;2482;49.154;8.254;2023-07-31T01:41:28;17.40;99.90
4934;DHT22;2482;49.154;8.254;2023-07-31T01:43:55;17.50;99.90
4934;DHT22;2482;49.154;8.254;2023-07-31T01:46:24;17.50;99.90
4934;DHT22;2482;49.154;8.254;2023-07-31T01:48:51;17.70;99.90
4934;DHT22;2482;49.154;8.254;2023-07-31T01:51:18;17.60;99.90
4934;DHT22;2482;49.154;8.254;2023-07-31T01:53:46;17.70;99.90
4934;DHT22;2482;49.154;8.254;2023-07-31T01:56:13;17.60;99.90
4934;DHT22;2482;49.154;8.254;2023-07-31T01:58:41;17.50;99.90
4934;DHT22;2482;49.154;8.254;2023-07-31T02:01:08;17.50;99.90
4934;DHT22;2482;49.154;8.254;2023-07-31T02:03:34;17.40;99.90
4934;DHT22;2482;49.154;8.254;2023-07-31T02:06:02;17.50;99.90
4934;DHT22;2482;49.154;8.254;2023-07-31T02:08:29;17.50;99.90
4934;DHT22;2482;49.154;8.254;2023-07-31T02:10:56;17.50;99.90
4934;DHT22;2482;49.154;8.254;2023-07-31T02:13:23;17.40;99.90
4934;DHT22;2482;49.154;8.254;2023-07-31T02:15:50;17.40;99.90
4934;DHT22;2482;49.154;8.254;2023-07-31T02:18:17;17.40;99.90
4934;DHT22;2482;49.154;8.254;2023-07-31T02:20:49;17.40;99.90
4934;DHT22;2482;49.154;8.254;2023-07-31T02:23:18;17.30;99.90
4934;DHT22;2482;49.154;8.254;2023-07-31T02:25:46;17.20;99.90
4934;DHT22;2482;49.154;8.254;2023-07-31T02:28:13;17.30;99.90
4934;DHT22;2482;49.154;8.254;2023-07-31T02:30:43;17.50;99.90
4934;DHT22;2482;49.154;8.254;2023-07-31T02:33:10;17.30;99.90
4934;DHT22;2482;49.154;8.254;2023-07-31T02:35:37;17.30;99.90
4934;DHT22;2482;49.154;8.254;2023-07-31T02:38:04;17.30;99.90
4934;DHT22;2482;49.154;8.254;2023-07-31T02:40:31;17.20;99.90
4934;DHT22;2482;49.154;8.254;2023-07-31T02:42:58;17.30;99.90
4934;DHT22;2482;49.154;8.254;2023-07-31T02:45:25;17.30;99.90
4934;DHT22;2482;49.154;8.254;2023-07-31T02:47:52;17.20;99.90
4934;DHT22;2482;49.154;8.254;2023-07-31T02:50:20;17.30;99.90
4934;DHT22;2482;49.154;8.254;2023-07-31T02:52:47;17.30;99.90
4934;DHT22;2482;49.154;8.254;2023-07-31T02:55:14;17.30;99.90
4934;DHT22;2482;49.154;8.254;2023-07-31T02:57:41;17.30;99.90
4934;DHT22;2482;49.154;8.254;2023-07-31T03:00:08;17.30;99.90
4934;DHT22;2482;49.154;8.254;2023-07-31T03:02:36;17.20;99.90
4934;DHT22;2482;49.154;8.254;2023-07-31T03:05:03;17.10;99.90
4934;DHT22;2482;49.154;8.254;2023-07-31T03:07:30;17.20;99.90
4934;DHT22;2482;49.154;8.254;2023-07-31T03:09:57;17.30;99.90
4934;DHT22;2482;49.154;8.254;2023-07-31T03:12:24;17.20;99.90
4934;DHT22;2482;49.154;8.254;2023-07-31T03:14:51;17.30;99.90
4934;DHT22;2482;49.154;8.254;2023-07-31T03:17:18;17.20;99.90
4934;DHT22;2482;49.154;8.254;2023-07-31T03:19:45;17.20;99.90
4934;DHT22;2482;49.154;8.254;2023-07-31T03:22:12;17.10;99.90
4934;DHT22;2482;49.154;8.254;2023-07-31T03:24:39;17.10;99.90
4934;DHT22;2482;49.154;8.254;2023-07-31T03:27:06;17.00;99.90
4934;DHT22;2482;49.154;8.254;2023-07-31T03:29:33;17.10;99.90
4934;DHT22;2482;49.154;8.254;2023-07-31T03:32:00;17.10;99.90
4934;DHT22;2482;49.154;8.254;2023-07-31T03:34:27;17.00;99.90
4934;DHT22;2482;49.154;8.254;2023-07-31T03:36:54;17.00;99.90
4934;DHT22;2482;49.154;8.254;2023-07-31T03:39:21;17.10;99.90
4934;DHT22;2482;49.154;8.254;2023-07-31T03:41:48;17.10;99.90
4934;DHT22;2482;49.154;8.254;2023-07-31T03:44:15;17.20;99.90
4934;DHT22;2482;49.154;8.254;2023-07-31T03:46:42;17.10;99.90
4934;DHT22;2482;49.154;8.254;2023-07-31T03:49:09;17.10;99.90
4934;DHT22;2482;49.154;8.254;2023-07-31T03:51:36;17.10;99.90
4934;DHT22;2482;49.154;8.254;2023-07-31T03:54:03;17.10;99.90
4934;DHT22;2482;49.154;8.254;2023-07-31T03:56:30;17.00;99.90
4934;DHT22;2482;49.154;8.254;2023-07-31T03:59:01;17.00;99.90
4934;DHT22;2482;49.154;8.254;2023-07-31T04:01:28;16.90;99.90
4934;DHT22;2482;49.154;8.254;2023-07-31T04:03:55;17.00;99.90
4934;DHT22;2482;49.154;8.254;2023-07-31T04:06:22;17.10;99.90
4934;DHT22;2482;49.154;8.254;2023-07-31T04:08:49;17.00;99.90
4934;DHT22;2482;49.154;8.254;2023-07-31T04:11:16;17.00;99.90
4934;DHT22;2482;49.154;8.254;2023-07-31T04:13:43;17.00;99.90
4934;DHT22;2482;49.154;8.254;2023-07-31T04:16:10;17.00;99.90
4934;DHT22;2482;49.154;8.254;2023-07-31T04:18:37;17.00;99.90
4934;DHT22;2482;49.154;8.254;2023-07-31T04:21:04;17.00;99.90
4934;DHT22;2482;49.154;8.254;2023-07-31T04:23:31;17.00;99.90
4934;DHT22;2482;49.154;8.254;2023-07-31T04:25:58;16.90;99.90
4934;DHT22;2482;49.154;8.254;2023-07-31T04:28:25;17.00;99.90
4934;DHT22;2482;49.154;8.254;2023-07-31T04:30:53;17.00;99.90
4934;DHT22;2482;49.154;8.254;2023-07-31T04:33:20;17.00;99.90
4934;DHT22;2482;49.154;8.254;2023-07-31T04:35:52;17.00;99.90
4934;DHT22;2482;49.154;8.254;2023-07-31T04:38:20;16.90;99.90
4934;DHT22;2482;49.154;8.254;2023-07-31T04:40:48;16.90;99.90
4934;DHT22;2482;49.154;8.254;2023-07-31T04:43:15;17.00;99.90
4934;DHT22;2482;49.154;8.254;2023-07-31T04:45:45;16.90;99.90
4934;DHT22;2482;49.154;8.254;2023-07-31T04:48:14;16.90;99.90
4934;DHT22;2482;49.154;8.254;2023-07-31T04:50:41;16.90;99.90
4934;DHT22;2482;49.154;8.254;2023-07-31T04:53:09;16.80;99.90
4934;DHT22;2482;49.154;8.254;2023-07-31T04:55:35;16.90;99.90
4934;DHT22;2482;49.154;8.254;2023-07-31T04:58:02;16.90;99.90
4934;DHT22;2482;49.154;8.254;2023-07-31T05:00:29;17.10;99.90
4934;DHT22;2482;49.154;8.254;2023-07-31T05:02:57;17.10;99.90
4934;DHT22;2482;49.154;8.254;2023-07-31T05:05:24;17.10;99.90
4934;DHT22;2482;49.154;8.254;2023-07-31T05:07:51;17.30;99.90
4934;DHT22;2482;49.154;8.254;2023-07-31T05:10:18;17.40;99.90
4934;DHT22;2482;49.154;8.254;2023-07-31T05:12:45;17.40;99.90
4934;DHT22;2482;49.154;8.254;2023-07-31T05:15:12;17.30;99.90
4934;DHT22;2482;49.154;8.254;2023-07-31T05:17:39;17.30;99.90
4934;DHT22;2482;49.154;8.254;2023-07-31T05:20:07;17.30;99.90
4934;DHT22;2482;49.154;8.254;2023-07-31T05:22:34;17.30;99.90
4934;DHT22;2482;49.154;8.254;2023-07-31T05:25:01;17.20;99.90
4934;DHT22;2482;49.154;8.254;2023-07-31T05:27:28;17.30;99.90
4934;DHT22;2482;49.154;8.254;2023-07-31T05:29:55;17.40;99.90
4934;DHT22;2482;49.154;8.254;2023-07-31T05:32:23;17.40;99.90
4934;DHT22;2482;49.154;8.254;2023-07-31T05:34:53;17.50;99.90
4934;DHT22;2482;49.154;8.254;2023-07-31T05:37:21;17.50;99.90
4934;DHT22;2482;49.154;8.254;2023-07-31T05:39:49;17.50;99.90
4934;DHT22;2482;49.154;8.254;2023-07-31T05:42:16;17.60;99.90
4934;DHT22;2482;49.154;8.254;2023-07-31T05:44:43;17.80;99.90
4934;DHT22;2482;49.154;8.254;2023-07-31T05:47:10;17.80;99.90
4934;DHT22;2482;49.154;8.254;2023-07-31T05:49:37;18.00;99.90
4934;DHT22;2482;49.154;8.254;2023-07-31T05:52:04;18.00;99.90
4934;DHT22;2482;49.154;8.254;2023-07-31T05:54:32;18.10;99.90
4934;DHT22;2482;49.154;8.254;2023-07-31T05:57:00;18.10;99.90
4934;DHT22;2482;49.154;8.254;2023-07-31T05:59:28;18.20;99.90
4934;DHT22;2482;49.154;8.254;2023-07-31T06:01:55;18.10;99.90
4934;DHT22;2482;49.154;8.254;2023-07-31T06:04:22;18.10;99.90
4934;DHT22;2482;49.154;8.254;2023-07-31T06:06:52;18.30;99.90
4934;DHT22;2482;49.154;8.254;2023-07-31T06:09:19;18.40;99.90
4934;DHT22;2482;49.154;8.254;2023-07-31T06:11:47;18.50;99.90
4934;DHT22;2482;49.154;8.254;2023-07-31T06:14:14;18.70;99.90
4934;DHT22;2482;49.154;8.254;2023-07-31T06:16:41;18.90;99.90
4934;DHT22;2482;49.154;8.254;2023-07-31T06:19:08;18.90;99.90
4934;DHT22;2482;49.154;8.254;2023-07-31T06:21:35;19.10;99.90
4934;DHT22;2482;49.154;8.254;2023-07-31T06:24:06;19.10;99.90
4934;DHT22;2482;49.154;8.254;2023-07-31T06:26:33;19.30;99.90
4934;DHT22;2482;49.154;8.254;2023-07-31T06:29:00;19.10;99.90
4934;DHT22;2482;49.154;8.254;2023-07-31T06:31:27;19.00;99.90
4934;DHT22;2482;49.154;8.254;2023-07-31T06:33:55;18.90;99.90
4934;DHT22;2482;49.154;8.254;2023-07-31T06:36:22;18.70;99.90
4934;DHT22;2482;49.154;8.254;2023-07-31T06:38:49;18.60;99.90
4934;DHT22;2482;49.154;8.254;2023-07-31T06:41:16;18.60;99.90
4934;DHT22;2482;49.154;8.254;2023-07-31T06:43:43;18.70;99.90
4934;DHT22;2482;49.154;8.254;2023-07-31T06:46:10;18.90;99.90
4934;DHT22;2482;49.154;8.254;2023-07-31T06:48:37;18.90;99.90
4934;DHT22;2482;49.154;8.254;2023-07-31T06:51:04;19.00;99.90
4934;DHT22;2482;49.154;8.254;2023-07-31T06:53:31;19.10;99.90
4934;DHT22;2482;49.154;8.254;2023-07-31T06:55:58;19.10;99.90
4934;DHT22;2482;49.154;8.254;2023-07-31T06:58:26;19.00;99.90
4934;DHT22;2482;49.154;8.254;2023-07-31T07:00:53;19.10;99.90
4934;DHT22;2482;49.154;8.254;2023-07-31T07:03:20;19.30;99.90
4934;DHT22;2482;49.154;8.254;2023-07-31T07:05:47;19.30;99.90
4934;DHT22;2482;49.154;8.254;2023-07-31T07:08:14;19.40;99.90
4934;DHT22;2482;49.154;8.254;2023-07-31T07:10:41;19.40;99.90
4934;DHT22;2482;49.154;8.254;2023-07-31T07:13:08;19.30;99.90
4934;DHT22;2482;49.154;8.254;2023-07-31T07:15:36;19.30;99.90
4934;DHT22;2482;49.154;8.254;2023-07-31T07:18:03;19.50;99.90
4934;DHT22;2482;49.154;8.254;2023-07-31T07:20:30;19.70;99.90
4934;DHT22;2482;49.154;8.254;2023-07-31T07:22:57;20.10;99.90
4934;DHT22;2482;49.154;8.254;2023-07-31T07:25:24;20.30;99.90
4934;DHT22;2482;49.154;8.254;2023-07-31T07:27:51;20.60;99.90
4934;DHT22;2482;49.154;8.254;2023-07-31T07:30:18;20.60;99.90
4934;DHT22;2482;49.154;8.254;2023-07-31T07:32:46;20.50;99.90
4934;DHT22;2482;49.154;8.254;2023-07-31T07:35:13;20.50;99.90
4934;DHT22;2482;49.154;8.254;2023-07-31T07:37:40;20.40;99.90
4934;DHT22;2482;49.154;8.254;2023-07-31T07:40:08;20.30;99.90
4934;DHT22;2482;49.154;8.254;2023-07-31T07:42:35;20.30;99.90
4934;DHT22;2482;49.154;8.254;2023-07-31T07:45:02;20.70;99.90
4934;DHT22;2482;49.154;8.254;2023-07-31T07:47:29;20.80;99.90
4934;DHT22;2482;49.154;8.254;2023-07-31T07:49:56;20.80;99.90
4934;DHT22;2482;49.154;8.254;2023-07-31T07:52:23;20.90;99.90
4934;DHT22;2482;49.154;8.254;2023-07-31T07:54:51;20.80;99.90
4934;DHT22;2482;49.154;8.254;2023-07-31T07:57:18;20.70;99.90
4934;DHT22;2482;49.154;8.254;2023-07-31T07:59:45;20.50;99.90
4934;DHT22;2482;49.154;8.254;2023-07-31T08:02:12;20.50;99.90
4934;DHT22;2482;49.154;8.254;2023-07-31T08:04:39;20.40;99.90
4934;DHT22;2482;49.154;8.254;2023-07-31T08:07:06;20.30;99.90
4934;DHT22;2482;49.154;8.254;2023-07-31T08:09:33;20.40;99.90
4934;DHT22;2482;49.154;8.254;2023-07-31T08:12:00;20.50;99.90
4934;DHT22;2482;49.154;8.254;2023-07-31T08:14:30;20.70;99.90
4934;DHT22;2482;49.154;8.254;2023-07-31T08:16:59;20.90;99.90
4934;DHT22;2482;49.154;8.254;2023-07-31T08:19:27;21.10;99.90
4934;DHT22;2482;49.154;8.254;2023-07-31T08:21:54;21.20;99.90
4934;DHT22;2482;49.154;8.254;2023-07-31T08:24:24;21.20;99.90
4934;DHT22;2482;49.154;8.254;2023-07-31T08:26:51;21.40;99.90
4934;DHT22;2482;49.154;8.254;2023-07-31T08:29:18;21.40;99.90
4934;DHT22;2482;49.154;8.254;2023-07-31T08:31:45;21.50;99.90
4934;DHT22;2482;49.154;8.254;2023-07-31T08:34:12;21.80;99.90
4934;DHT22;2482;49.154;8.254;2023-07-31T08:36:39;22.10;99.90
4934;DHT22;2482;49.154;8.254;2023-07-31T08:39:07;22.10;99.90
4934;DHT22;2482;49.154;8.254;2023-07-31T08:41:40;22.00;99.90
4934;DHT22;2482;49.154;8.254;2023-07-31T08:44:07;21.80;99.90
4934;DHT22;2482;49.154;8.254;2023-07-31T08:46:37;22.10;99.90
4934;DHT22;2482;49.154;8.254;2023-07-31T08:49:05;22.40;99.90
4934;DHT22;2482;49.154;8.254;2023-07-31T08:51:36;22.80;99.90
4934;DHT22;2482;49.154;8.254;2023-07-31T08:54:03;22.60;99.90
4934;DHT22;2482;49.154;8.254;2023-07-31T08:56:32;22.40;99.90
4934;DHT22;2482;49.154;8.254;2023-07-31T08:59:01;22.20;99.90
4934;DHT22;2482;49.154;8.254;2023-07-31T09:01:33;22.50;99.90
4934;DHT22;2482;49.154;8.254;2023-07-31T09:04:04;23.10;99.90
4934;DHT22;2482;49.154;8.254;2023-07-31T09:06:32;23.10;99.90
4934;DHT22;2482;49.154;8.254;2023-07-31T09:09:00;23.10;99.90
4934;DHT22;2482;49.154;8.254;2023-07-31T09:11:27;23.30;99.90
4934;DHT22;2482;49.154;8.254;2023-07-31T09:13:57;23.50;99.90
4934;DHT22;2482;49.154;8.254;2023-07-31T09:16:29;23.70;99.90
4934;DHT22;2482;49.154;8.254;2023-07-31T09:18:59;22.90;99.90
4934;DHT22;2482;49.154;8.254;2023-07-31T09:21:28;22.80;99.90
4934;DHT22;2482;49.154;8.254;2023-07-31T09:23:55;22.90;99.90
4934;DHT22;2482;49.154;8.254;2023-07-31T09:26:30;23.10;99.90
4934;DHT22;2482;49.154;8.254;2023-07-31T09:29:04;23.00;99.90
4934;DHT22;2482;49.154;8.254;2023-07-31T09:31:42;23.00;99.90
4934;DHT22;2482;49.154;8.254;2023-07-31T09:34:10;23.30;99.90
4934;DHT22;2482;49.154;8.254;2023-07-31T09:36:46;23.60;99.90
4934;DHT22;2482;49.154;8.254;2023-07-31T09:39:15;23.50;99.90
4934;DHT22;2482;49.154;8.254;2023-07-31T09:41:45;23.30;99.90
4934;DHT22;2482;49.154;8.254;2023-07-31T09:44:14;23.40;99.90
4934;DHT22;2482;49.154;8.254;2023-07-31T09:46:41;23.40;99.90
4934;DHT22;2482;49.154;8.254;2023-07-31T09:49:13;23.50;99.90
4934;DHT22;2482;49.154;8.254;2023-07-31T09:51:42;23.30;99.90
4934;DHT22;2482;49.154;8.254;2023-07-31T09:56:48;23.60;99.90
4934;DHT22;2482;49.154;8.254;2023-07-31T09:59:20;23.10;99.90
4934;DHT22;2482;49.154;8.254;2023-07-31T10:01:50;23.00;99.90
4934;DHT22;2482;49.154;8.254;2023-07-31T10:04:21;22.70;99.90
4934;DHT22;2482;49.154;8.254;2023-07-31T10:06:53;22.70;99.90
4934;DHT22;2482;49.154;8.254;2023-07-31T10:09:21;23.10;99.90
4934;DHT22;2482;49.154;8.254;2023-07-31T10:12:00;23.30;99.90
4934;DHT22;2482;49.154;8.254;2023-07-31T10:14:27;23.30;99.90
4934;DHT22;2482;49.154;8.254;2023-07-31T10:16:57;23.80;99.90
4934;DHT22;2482;49.154;8.254;2023-07-31T10:19:26;24.40;99.90
4934;DHT22;2482;49.154;8.254;2023-07-31T10:21:54;24.20;99.90
4934;DHT22;2482;49.154;8.254;2023-07-31T10:24:24;24.40;99.90
4934;DHT22;2482;49.154;8.254;2023-07-31T10:26:52;24.70;99.90
4934;DHT22;2482;49.154;8.254;2023-07-31T10:29:20;24.70;99.90
4934;DHT22;2482;49.154;8.254;2023-07-31T10:31:49;24.50;99.90
4934;DHT22;2482;49.154;8.254;2023-07-31T10:34:17;24.70;99.90
4934;DHT22;2482;49.154;8.254;2023-07-31T10:36:44;24.30;99.90
4934;DHT22;2482;49.154;8.254;2023-07-31T10:39:34;24.40;99.90
4934;DHT22;2482;49.154;8.254;2023-07-31T10:42:15;25.00;99.90
4934;DHT22;2482;49.154;8.254;2023-07-31T10:44:46;25.40;99.90
4934;DHT22;2482;49.154;8.254;2023-07-31T10:47:17;25.20;99.90
4934;DHT22;2482;49.154;8.254;2023-07-31T10:49:45;24.80;99.90
4934;DHT22;2482;49.154;8.254;2023-07-31T10:52:20;25.00;99.90
4934;DHT22;2482;49.154;8.254;2023-07-31T10:58:11;24.90;99.90
4934;DHT22;2482;49.154;8.254;2023-07-31T11:00:41;24.70;99.90
4934;DHT22;2482;49.154;8.254;2023-07-31T11:03:14;24.80;99.90
4934;DHT22;2482;49.154;8.254;2023-07-31T11:08:28;25.00;99.90
4934;DHT22;2482;49.154;8.254;2023-07-31T11:15:55;24.70;99.90
4934;DHT22;2482;49.154;8.254;2023-07-31T11:18:23;24.70;99.90
4934;DHT22;2482;49.154;8.254;2023-07-31T11:20:50;25.00;99.90
4934;DHT22;2482;49.154;8.254;2023-07-31T11:23:18;25.30;99.90
4934;DHT22;2482;49.154;8.254;2023-07-31T11:25:46;24.80;99.90
4934;DHT22;2482;49.154;8.254;2023-07-31T11:28:14;24.50;99.90
4934;DHT22;2482;49.154;8.254;2023-07-31T11:30:43;24.40;99.90
4934;DHT22;2482;49.154;8.254;2023-07-31T11:33:12;24.50;99.90
4934;DHT22;2482;49.154;8.254;2023-07-31T11:35:45;24.60;99.90
4934;DHT22;2482;49.154;8.254;2023-07-31T11:38:27;24.60;99.90
4934;DHT22;2482;49.154;8.254;2023-07-31T11:41:00;24.40;99.90
4934;DHT22;2482;49.154;8.254;2023-07-31T11:43:30;24.50;99.90
4934;DHT22;2482;49.154;8.254;2023-07-31T11:45:59;24.30;99.90
4934;DHT22;2482;49.154;8.254;2023-07-31T11:48:32;24.30;99.90
4934;DHT22;2482;49.154;8.254;2023-07-31T11:51:02;24.40;99.90
4934;DHT22;2482;49.154;8.254;2023-07-31T11:56:13;24.60;99.90
4934;DHT22;2482;49.154;8.254;2023-07-31T11:58:41;24.50;99.90
4934;DHT22;2482;49.154;8.254;2023-07-31T12:01:10;25.00;99.90
4934;DHT22;2482;49.154;8.254;2023-07-31T12:03:37;25.40;99.90
4934;DHT22;2482;49.154;8.254;2023-07-31T12:06:05;25.20;99.90
4934;DHT22;2482;49.154;8.254;2023-07-31T12:08:32;24.90;99.90
4934;DHT22;2482;49.154;8.254;2023-07-31T12:11:05;24.70;99.90
4934;DHT22;2482;49.154;8.254;2023-07-31T12:13:36;24.40;99.90
4934;DHT22;2482;49.154;8.254;2023-07-31T12:16:04;24.40;99.90
4934;DHT22;2482;49.154;8.254;2023-07-31T12:18:36;24.80;99.90
4934;DHT22;2482;49.154;8.254;2023-07-31T12:21:06;25.20;99.90
4934;DHT22;2482;49.154;8.254;2023-07-31T12:23:36;25.10;99.90
4934;DHT22;2482;49.154;8.254;2023-07-31T12:26:16;25.20;99.90
4934;DHT22;2482;49.154;8.254;2023-07-31T12:28:45;25.50;99.90
4934;DHT22;2482;49.154;8.254;2023-07-31T12:31:20;25.20;99.90
4934;DHT22;2482;49.154;8.254;2023-07-31T12:33:50;25.20;99.90
4934;DHT22;2482;49.154;8.254;2023-07-31T12:36:23;25.20;99.90
4934;DHT22;2482;49.154;8.254;2023-07-31T12:38:51;25.20;99.90
4934;DHT22;2482;49.154;8.254;2023-07-31T12:41:19;24.90;99.90
4934;DHT22;2482;49.154;8.254;2023-07-31T12:43:46;24.70;99.90
4934;DHT22;2482;49.154;8.254;2023-07-31T12:46:13;24.30;99.90
4934;DHT22;2482;49.154;8.254;2023-07-31T12:48:41;24.10;99.90
4934;DHT22;2482;49.154;8.254;2023-07-31T12:51:08;24.00;99.90
4934;DHT22;2482;49.154;8.254;2023-07-31T12:53:36;23.50;99.90
4934;DHT22;2482;49.154;8.254;2023-07-31T12:56:03;23.40;99.90
4934;DHT22;2482;49.154;8.254;2023-07-31T12:58:30;23.40;99.90
4934;DHT22;2482;49.154;8.254;2023-07-31T13:00:57;23.50;99.90
4934;DHT22;2482;49.154;8.254;2023-07-31T13:03:24;23.50;99.90
4934;DHT22;2482;49.154;8.254;2023-07-31T13:05:52;23.50;99.90
4934;DHT22;2482;49.154;8.254;2023-07-31T13:08:19;23.60;99.90
4934;DHT22;2482;49.154;8.254;2023-07-31T13:10:46;23.80;99.90
4934;DHT22;2482;49.154;8.254;2023-07-31T13:13:13;23.80;99.90
4934;DHT22;2482;49.154;8.254;2023-07-31T13:15:41;23.70;99.90
4934;DHT22;2482;49.154;8.254;2023-07-31T13:18:09;23.70;99.90
4934;DHT22;2482;49.154;8.254;2023-07-31T13:20:36;23.70;99.90
4934;DHT22;2482;49.154;8.254;2023-07-31T13:23:03;23.80;99.90
4934;DHT22;2482;49.154;8.254;2023-07-31T13:25:29;24.00;99.90
4934;DHT22;2482;49.154;8.254;2023-07-31T13:27:56;24.10;99.90
4934;DHT22;2482;49.154;8.254;2023-07-31T13:30:27;24.20;99.90
4934;DHT22;2482;49.154;8.254;2023-07-31T13:32:54;24.20;99.90
4934;DHT22;2482;49.154;8.254;2023-07-31T13:35:21;24.20;99.90
4934;DHT22;2482;49.154;8.254;2023-07-31T13:37:48;24.40;99.90
4934;DHT22;2482;49.154;8.254;2023-07-31T13:40:15;24.40;99.90
4934;DHT22;2482;49.154;8.254;2023-07-31T13:42:42;24.40;99.90
4934;DHT22;2482;49.154;8.254;2023-07-31T13:45:09;24.40;99.90
4934;DHT22;2482;49.154;8.254;2023-07-31T13:47:36;24.50;99.90
4934;DHT22;2482;49.154;8.254;2023-07-31T13:50:04;24.50;99.90
4934;DHT22;2482;49.154;8.254;2023-07-31T13:52:31;24.40;99.90
4934;DHT22;2482;49.154;8.254;2023-07-31T13:54:58;24.20;99.90
4934;DHT22;2482;49.154;8.254;2023-07-31T13:57:25;23.80;99.90
4934;DHT22;2482;49.154;8.254;2023-07-31T13:59:52;23.70;99.90
4934;DHT22;2482;49.154;8.254;2023-07-31T14:02:19;23.70;99.90
4934;DHT22;2482;49.154;8.254;2023-07-31T14:04:46;23.30;99.90
4934;DHT22;2482;49.154;8.254;2023-07-31T14:07:13;23.20;99.90
4934;DHT22;2482;49.154;8.254;2023-07-31T14:09:40;23.20;99.90
4934;DHT22;2482;49.154;8.254;2023-07-31T14:12:07;23.10;99.90
4934;DHT22;2482;49.154;8.254;2023-07-31T14:14:34;23.10;99.90
4934;DHT22;2482;49.154;8.254;2023-07-31T14:17:02;23.00;99.90
4934;DHT22;2482;49.154;8.254;2023-07-31T14:19:29;23.00;99.90
4934;DHT22;2482;49.154;8.254;2023-07-31T14:21:58;23.00;99.90
4934;DHT22;2482;49.154;8.254;2023-07-31T14:24:38;23.00;99.90
4934;DHT22;2482;49.154;8.254;2023-07-31T14:27:05;23.10;99.90
4934;DHT22;2482;49.154;8.254;2023-07-31T14:29:32;23.20;99.90
4934;DHT22;2482;49.154;8.254;2023-07-31T14:31:59;23.30;99.90
4934;DHT22;2482;49.154;8.254;2023-07-31T14:34:27;23.40;99.90
4934;DHT22;2482;49.154;8.254;2023-07-31T14:36:54;23.50;99.90
4934;DHT22;2482;49.154;8.254;2023-07-31T14:39:21;23.60;99.90
4934;DHT22;2482;49.154;8.254;2023-07-31T14:41:48;23.80;99.90
4934;DHT22;2482;49.154;8.254;2023-07-31T14:44:15;23.70;99.90
4934;DHT22;2482;49.154;8.254;2023-07-31T14:46:42;23.70;99.90
4934;DHT22;2482;49.154;8.254;2023-07-31T14:49:10;23.90;99.90
4934;DHT22;2482;49.154;8.254;2023-07-31T14:51:37;24.00;99.90
4934;DHT22;2482;49.154;8.254;2023-07-31T14:54:04;24.40;99.90
4934;DHT22;2482;49.154;8.254;2023-07-31T14:56:31;24.50;99.90
4934;DHT22;2482;49.154;8.254;2023-07-31T14:58:58;24.30;99.90
4934;DHT22;2482;49.154;8.254;2023-07-31T15:01:25;24.30;99.90
4934;DHT22;2482;49.154;8.254;2023-07-31T15:03:52;24.30;99.90
4934;DHT22;2482;49.154;8.254;2023-07-31T15:06:19;24.40;99.90
4934;DHT22;2482;49.154;8.254;2023-07-31T15:08:46;24.70;99.90
4934;DHT22;2482;49.154;8.254;2023-07-31T15:11:13;24.90;99.90
4934;DHT22;2482;49.154;8.254;2023-07-31T15:13:42;24.80;99.90
4934;DHT22;2482;49.154;8.254;2023-07-31T15:16:09;24.60;99.90
4934;DHT22;2482;49.154;8.254;2023-07-31T15:18:37;24.70;99.90
4934;DHT22;2482;49.154;8.254;2023-07-31T15:21:04;24.60;99.90
4934;DHT22;2482;49.154;8.254;2023-07-31T15:23:33;24.70;99.90
4934;DHT22;2482;49.154;8.254;2023-07-31T15:26:00;24.40;99.90
4934;DHT22;2482;49.154;8.254;2023-07-31T15:28:28;24.30;99.90
4934;DHT22;2482;49.154;8.254;2023-07-31T15:30:55;24.20;99.90
4934;DHT22;2482;49.154;8.254;2023-07-31T15:33:22;24.20;99.90
4934;DHT22;2482;49.154;8.254;2023-07-31T15:35:49;24.00;99.90
4934;DHT22;2482;49.154;8.254;2023-07-31T15:38:16;23.70;99.90
4934;DHT22;2482;49.154;8.254;2023-07-31T15:40:43;23.50;99.90
4934;DHT22;2482;49.154;8.254;2023-07-31T15:43:10;23.60;99.90
4934;DHT22;2482;49.154;8.254;2023-07-31T15:45:37;23.60;99.90
4934;DHT22;2482;49.154;8.254;2023-07-31T15:48:04;23.50;99.90
4934;DHT22;2482;49.154;8.254;2023-07-31T15:50:32;23.40;99.90
4934;DHT22;2482;49.154;8.254;2023-07-31T15:53:00;23.40;99.90
4934;DHT22;2482;49.154;8.254;2023-07-31T15:55:27;23.60;99.90
4934;DHT22;2482;49.154;8.254;2023-07-31T15:57:55;23.70;99.90
4934;DHT22;2482;49.154;8.254;2023-07-31T16:00:22;23.80;99.90
4934;DHT22;2482;49.154;8.254;2023-07-31T16:02:49;24.00;99.90
4934;DHT22;2482;49.154;8.254;2023-07-31T16:05:16;23.80;99.90
4934;DHT22;2482;49.154;8.254;2023-07-31T16:07:43;23.50;99.90
4934;DHT22;2482;49.154;8.254;2023-07-31T16:10:10;23.50;99.90
4934;DHT22;2482;49.154;8.254;2023-07-31T16:12:37;23.50;99.90
4934;DHT22;2482;49.154;8.254;2023-07-31T16:15:05;23.60;99.90
4934;DHT22;2482;49.154;8.254;2023-07-31T16:17:32;23.50;99.90
4934;DHT22;2482;49.154;8.254;2023-07-31T16:20:00;23.50;99.90
4934;DHT22;2482;49.154;8.254;2023-07-31T16:22:27;23.30;99.90
4934;DHT22;2482;49.154;8.254;2023-07-31T16:24:54;23.20;99.90
4934;DHT22;2482;49.154;8.254;2023-07-31T16:27:21;23.20;99.90
4934;DHT22;2482;49.154;8.254;2023-07-31T16:29:50;23.10;99.90
4934;DHT22;2482;49.154;8.254;2023-07-31T16:32:17;23.00;99.90
4934;DHT22;2482;49.154;8.254;2023-07-31T16:34:45;23.00;99.90
4934;DHT22;2482;49.154;8.254;2023-07-31T16:37:12;23.20;99.90